Time;durP1;ratioP1;P1;durP2;ratioP2;P2;SDS_P1;SDS_P2;PMS_P1;PMS_P2;Temp;Humidity;BMP_temperature;BMP_pressure;BME280_temperature;BME280_humidity;BME280_pressure;Samples;Min_cycle;Max_cycle;Signal;HPM_P1;HPM_P2
2021/08/26 00:07:06;;;;;;;9.03;1.80;;;;;;;-145.18;100.00;60484.78;5078252;28;20546;-66
2021/08/26 00:09:31;;;;;;;10.00;1.70;;;;;;;-145.18;100.00;60484.78;5078689;28;20282;-66
2021/08/26 00:11:57;;;;;;;7.57;2.33;;;;;;;-145.18;100.00;60484.78;5072221;28;20086;-66
2021/08/26 00:14:24;;;;;;;7.43;1.90;;;;;;;-145.18;100.00;60484.78;5077325;28;20678;-66
2021/08/26 00:16:49;;;;;;;14.73;2.30;;;;;;;-145.18;100.00;60484.78;5077333;28;20044;-66
2021/08/26 00:19:15;;;;;;;8.97;2.50;;;;;;;-145.18;100.00;60484.78;5067320;28;20066;-66
2021/08/26 00:21:42;;;;;;;9.10;2.10;;;;;;;-145.18;100.00;60484.78;5078593;28;20376;-66
2021/08/26 00:24:08;;;;;;;6.93;1.93;;;;;;;-145.18;100.00;60484.78;5072441;28;20081;-66
2021/08/26 00:26:34;;;;;;;6.40;1.47;;;;;;;-145.18;100.00;60484.78;5078685;28;20035;-66
2021/08/26 00:29:01;;;;;;;8.50;2.17;;;;;;;-145.18;100.00;60484.78;5079350;28;20030;-66
2021/08/26 00:31:27;;;;;;;10.57;2.00;;;;;;;-145.18;100.00;60484.78;5077121;28;20034;-66
2021/08/26 00:33:52;;;;;;;15.83;1.87;;;;;;;-145.18;100.00;60484.78;5081301;28;20040;-66
2021/08/26 00:36:18;;;;;;;10.70;2.87;;;;;;;-145.18;100.00;60484.78;5080168;28;20044;-66
2021/08/26 00:38:45;;;;;;;10.47;2.00;;;;;;;-145.18;100.00;60484.78;5074778;28;20028;-66
2021/08/26 00:41:12;;;;;;;11.90;2.10;;;;;;;-145.18;100.00;60484.78;5080412;28;20028;-66
2021/08/26 00:43:38;;;;;;;10.43;1.90;;;;;;;-145.18;100.00;60484.78;5076557;28;20085;-66
2021/08/26 00:46:03;;;;;;;13.50;2.20;;;;;;;-145.18;100.00;60484.78;5078380;28;20036;-66
2021/08/26 00:48:29;;;;;;;11.73;2.33;;;;;;;-145.18;100.00;60484.78;5077954;28;20523;-66
2021/08/26 00:50:58;;;;;;;12.03;2.03;;;;;;;-145.18;100.00;60484.78;5078382;28;20132;-66
2021/08/26 00:53:24;;;;;;;8.83;2.20;;;;;;;-145.18;100.00;60484.78;5067185;28;20033;-66
2021/08/26 00:55:51;;;;;;;13.57;2.40;;;;;;;-145.18;100.00;60484.78;5071646;28;20032;-66
2021/08/26 00:58:16;;;;;;;10.60;2.20;;;;;;;-145.18;100.00;60484.78;5078369;28;20077;-66
2021/08/26 01:00:50;;;;;;;12.53;2.50;;;;;;;-145.18;100.00;60484.78;5078558;28;20116;-66
2021/08/26 01:03:21;;;;;;;16.97;2.20;;;;;;;-145.18;100.00;60484.78;5072197;28;20028;-66
2021/08/26 01:05:52;;;;;;;11.33;1.70;;;;;;;-145.18;100.00;60484.78;5076424;28;20020;-66
2021/08/26 01:08:35;;;;;;;9.80;2.07;;;;;;;-145.18;100.00;60484.78;5075805;28;20942;-66
2021/08/26 01:11:03;;;;;;;10.83;2.03;;;;;;;-145.18;100.00;60484.78;5070081;28;20507;-66
2021/08/26 01:13:34;;;;;;;10.03;2.30;;;;;;;-145.18;100.00;60484.78;5078145;28;20036;-66
2021/08/26 01:16:10;;;;;;;11.53;2.43;;;;;;;-145.18;100.00;60484.78;5065438;28;20048;-66
2021/08/26 01:18:40;;;;;;;8.73;2.60;;;;;;;-145.18;100.00;60484.78;5072730;28;20086;-66
2021/08/26 01:21:18;;;;;;;9.27;1.90;;;;;;;-145.18;100.00;60484.78;5079114;28;20442;-66
2021/08/26 01:24:04;;;;;;;11.17;2.30;;;;;;;-145.18;100.00;60484.78;5078490;28;20028;-65
2021/08/26 01:26:44;;;;;;;14.40;2.43;;;;;;;-145.18;100.00;60484.78;5077184;28;20043;-66
2021/08/26 01:29:11;;;;;;;16.67;2.20;;;;;;;-145.18;100.00;60484.78;5070016;28;20472;-66
2021/08/26 01:31:48;;;;;;;11.47;2.43;;;;;;;-145.18;100.00;60484.78;5068383;28;20020;-66
2021/08/26 01:34:15;;;;;;;9.13;2.43;;;;;;;-145.18;100.00;60484.78;5075096;28;20052;-66
2021/08/26 01:36:41;;;;;;;11.03;2.20;;;;;;;-145.18;100.00;60484.78;5077062;28;20036;-66
2021/08/26 01:39:09;;;;;;;11.13;2.03;;;;;;;-145.18;100.00;60484.78;5073626;28;20081;-66
2021/08/26 01:41:55;;;;;;;9.77;2.10;;;;;;;-145.18;100.00;60484.78;5075492;28;20032;-66
2021/08/26 01:44:27;;;;;;;11.90;2.77;;;;;;;-145.18;100.00;60484.78;5077417;28;20093;-66
2021/08/26 01:47:03;;;;;;;15.00;2.35;;;;;;;-145.18;100.00;60484.78;5071438;28;20111;-66
2021/08/26 01:49:28;;;;;;;15.17;2.40;;;;;;;-145.18;100.00;60484.78;5077316;28;20062;-66
2021/08/26 01:51:54;;;;;;;10.90;2.27;;;;;;;-145.18;100.00;60484.78;5077616;28;20035;-66
2021/08/26 01:54:19;;;;;;;17.17;2.80;;;;;;;-145.18;100.00;60484.78;5077154;28;20137;-66
2021/08/26 01:56:45;;;;;;;12.20;2.27;;;;;;;-145.18;100.00;60484.78;5076847;28;20524;-66
2021/08/26 01:59:11;;;;;;;9.67;2.37;;;;;;;-145.18;100.00;60484.78;5078009;28;20071;-66
2021/08/26 02:01:36;;;;;;;14.03;2.20;;;;;;;-145.18;100.00;60484.78;5077871;28;20050;-66
2021/08/26 02:04:02;;;;;;;26.00;3.33;;;;;;;-145.18;100.00;60484.78;5073132;28;20028;-66
2021/08/26 02:06:27;;;;;;;14.47;2.50;;;;;;;-145.18;100.00;60484.78;5076870;28;20227;-66
2021/08/26 02:08:53;;;;;;;11.43;2.30;;;;;;;-145.18;100.00;60484.78;5074190;28;20071;-66
2021/08/26 02:11:18;;;;;;;12.87;2.17;;;;;;;-145.18;100.00;60484.78;5075791;28;20461;-66
2021/08/26 02:13:44;;;;;;;16.73;2.50;;;;;;;-145.18;100.00;60484.78;5078316;28;20257;-65
2021/08/26 02:16:10;;;;;;;10.13;2.77;;;;;;;-145.18;100.00;60484.78;5076696;28;20455;-65
2021/08/26 02:18:35;;;;;;;13.03;2.37;;;;;;;-145.18;100.00;60484.78;5076928;28;20020;-65
2021/08/26 02:21:01;;;;;;;7.40;2.13;;;;;;;-145.18;100.00;60484.78;5081576;28;20089;-66
2021/08/26 02:23:26;;;;;;;17.47;2.10;;;;;;;-145.18;100.00;60484.78;5081980;28;20059;-66
2021/08/26 02:25:52;;;;;;;11.50;2.17;;;;;;;-145.18;100.00;60484.78;5078388;28;20410;-66
2021/08/26 02:28:17;;;;;;;9.37;2.37;;;;;;;-145.18;100.00;60484.78;5080541;28;20542;-66
2021/08/26 02:30:43;;;;;;;14.27;2.57;;;;;;;-145.18;100.00;60484.78;5077820;28;20649;-66
2021/08/26 02:33:08;;;;;;;17.73;2.73;;;;;;;-145.18;100.00;60484.78;5080334;28;20317;-66
2021/08/26 02:35:34;;;;;;;12.67;2.13;;;;;;;-145.18;100.00;60484.78;5076692;28;20035;-66
2021/08/26 02:37:59;;;;;;;14.60;2.43;;;;;;;-145.18;100.00;60484.78;5070637;28;20181;-66
2021/08/26 02:40:25;;;;;;;17.23;2.90;;;;;;;-145.18;100.00;60484.78;5080547;28;20293;-66
2021/08/26 02:42:51;;;;;;;11.27;3.00;;;;;;;-145.18;100.00;60484.78;5080785;28;20028;-66
2021/08/26 02:45:16;;;;;;;10.97;2.33;;;;;;;-145.18;100.00;60484.78;5080440;28;20301;-65
2021/08/26 02:47:41;;;;;;;10.17;2.70;;;;;;;-145.18;100.00;60484.78;5078489;28;20121;-66
2021/08/26 02:50:08;;;;;;;16.13;2.53;;;;;;;-145.18;100.00;60484.78;5074646;28;20174;-66
2021/08/26 02:52:33;;;;;;;15.70;2.87;;;;;;;-145.18;100.00;60484.78;5080423;28;20020;-66
2021/08/26 02:54:59;;;;;;;22.47;2.93;;;;;;;-145.18;100.00;60484.78;5073929;28;20039;-66
2021/08/26 02:57:24;;;;;;;11.90;2.50;;;;;;;-145.18;100.00;60484.78;5079532;28;20032;-66
2021/08/26 02:59:50;;;;;;;10.67;2.90;;;;;;;-145.18;100.00;60484.78;5077081;28;20031;-66
2021/08/26 03:02:15;;;;;;;15.70;2.57;;;;;;;-145.18;100.00;60484.78;5077802;28;20028;-66
2021/08/26 03:04:41;;;;;;;21.10;2.90;;;;;;;-145.18;100.00;60484.78;5076691;28;20061;-66
2021/08/26 03:07:06;;;;;;;16.20;2.80;;;;;;;-145.18;100.00;60484.78;5080846;28;20024;-66
2021/08/26 03:09:32;;;;;;;17.10;2.57;;;;;;;-145.18;100.00;60484.78;5079927;28;20032;-66
2021/08/26 03:11:57;;;;;;;16.17;2.83;;;;;;;-145.18;100.00;60484.78;5079627;28;20059;-66
2021/08/26 03:14:23;;;;;;;14.60;2.80;;;;;;;-145.18;100.00;60484.78;5079129;28;20500;-66
2021/08/26 03:16:48;;;;;;;16.03;2.87;;;;;;;-145.18;100.00;60484.78;5079200;28;20086;-66
2021/08/26 03:19:14;;;;;;;13.63;2.67;;;;;;;-145.18;100.00;60484.78;5077837;28;20115;-66
2021/08/26 03:21:39;;;;;;;15.53;2.93;;;;;;;-145.18;100.00;60484.78;5080528;28;20417;-66
2021/08/26 03:24:05;;;;;;;6.97;2.50;;;;;;;-145.18;100.00;60484.78;5078019;28;20040;-66
2021/08/26 03:26:31;;;;;;;12.03;2.70;;;;;;;-145.18;100.00;60484.78;5079408;28;20020;-66
2021/08/26 03:28:56;;;;;;;14.53;2.83;;;;;;;-145.18;100.00;60484.78;5075891;28;20038;-65
2021/08/26 03:31:22;;;;;;;15.87;2.70;;;;;;;-145.18;100.00;60484.78;5079039;28;20019;-66
2021/08/26 03:33:47;;;;;;;15.47;2.80;;;;;;;-145.18;100.00;60484.78;5073545;28;20474;-66
2021/08/26 03:36:13;;;;;;;13.80;3.50;;;;;;;-145.18;100.00;60484.78;5079111;28;20434;-65
2021/08/26 03:38:39;;;;;;;16.40;3.67;;;;;;;-145.18;100.00;60484.78;5079769;28;20044;-66
2021/08/26 03:41:05;;;;;;;11.17;2.83;;;;;;;-145.18;100.00;60484.78;5079858;28;20491;-66
2021/08/26 03:43:31;;;;;;;12.77;3.70;;;;;;;-145.18;100.00;60484.78;5080401;28;20020;-66
2021/08/26 03:45:56;;;;;;;17.73;3.53;;;;;;;-145.18;100.00;60484.78;5073533;28;20020;-66
2021/08/26 03:48:22;;;;;;;20.03;3.50;;;;;;;-145.18;100.00;60484.78;5068552;28;20028;-66
2021/08/26 03:50:47;;;;;;;16.23;3.27;;;;;;;-145.18;100.00;60484.78;5079390;28;20031;-65
2021/08/26 03:53:13;;;;;;;12.27;3.00;;;;;;;-145.18;100.00;60484.78;5078826;28;20119;-66
2021/08/26 03:55:39;;;;;;;15.57;3.13;;;;;;;-145.18;100.00;60484.78;5079025;28;20042;-66
2021/08/26 03:58:04;;;;;;;13.63;3.20;;;;;;;-145.18;100.00;60484.78;5077215;28;20206;-67
2021/08/26 04:00:30;;;;;;;17.37;3.27;;;;;;;-145.18;100.00;60484.78;5076175;28;20357;-67
2021/08/26 04:02:55;;;;;;;12.03;3.03;;;;;;;-145.18;100.00;60484.78;5078094;28;20028;-67
2021/08/26 04:05:21;;;;;;;26.20;3.83;;;;;;;-145.18;100.00;60484.78;5068405;28;20027;-67
2021/08/26 04:07:46;;;;;;;17.30;3.67;;;;;;;-145.18;100.00;60484.78;5076773;28;20502;-67
2021/08/26 04:10:12;;;;;;;19.33;3.23;;;;;;;-145.18;100.00;60484.78;5079717;28;20072;-67
2021/08/26 04:12:37;;;;;;;20.07;3.03;;;;;;;-145.18;100.00;60484.78;5070615;28;20028;-67
2021/08/26 04:15:04;;;;;;;20.07;3.50;;;;;;;-145.18;100.00;60484.78;5078585;28;20537;-67
2021/08/26 04:17:29;;;;;;;12.73;3.10;;;;;;;-145.18;100.00;60484.78;5077765;28;20071;-67
2021/08/26 04:19:55;;;;;;;20.47;2.83;;;;;;;-145.18;100.00;60484.78;5077812;28;20066;-67
2021/08/26 04:22:20;;;;;;;16.73;2.83;;;;;;;-145.18;100.00;60484.78;5078566;28;20046;-67
2021/08/26 04:24:46;;;;;;;12.80;3.77;;;;;;;-145.18;100.00;60484.78;5076209;28;20067;-67
2021/08/26 04:27:11;;;;;;;17.67;3.40;;;;;;;-145.18;100.00;60484.78;5071349;28;20514;-67
2021/08/26 04:29:37;;;;;;;21.70;3.63;;;;;;;-145.18;100.00;60484.78;5076343;28;20024;-67
2021/08/26 04:32:03;;;;;;;19.23;3.40;;;;;;;-145.18;100.00;60484.78;5077648;28;20363;-67
2021/08/26 04:34:28;;;;;;;16.30;4.60;;;;;;;-145.18;100.00;60484.78;5078932;28;20601;-67
2021/08/26 04:36:54;;;;;;;16.57;3.27;;;;;;;-145.18;100.00;60484.78;5079067;28;20028;-67
2021/08/26 04:39:20;;;;;;;18.63;3.50;;;;;;;-145.18;100.00;60484.78;5078153;28;20485;-67
2021/08/26 04:41:45;;;;;;;18.23;4.03;;;;;;;-145.18;100.00;60484.78;5079452;28;20111;-67
2021/08/26 04:44:11;;;;;;;17.87;3.50;;;;;;;-145.18;100.00;60484.78;5079065;28;20077;-67
2021/08/26 04:46:36;;;;;;;14.20;2.40;;;;;;;-145.18;100.00;60484.78;5077905;28;20392;-67
2021/08/26 04:49:02;;;;;;;18.33;4.73;;;;;;;-145.18;100.00;60484.78;5078208;28;20096;-67
2021/08/26 04:51:27;;;;;;;13.50;2.70;;;;;;;-145.18;100.00;60484.78;5078794;28;20347;-67
2021/08/26 04:53:53;;;;;;;14.23;2.90;;;;;;;-145.18;100.00;60484.78;5078547;28;20076;-67
2021/08/26 04:56:18;;;;;;;20.30;3.70;;;;;;;-145.18;100.00;60484.78;5078473;28;20039;-67
2021/08/26 04:58:44;;;;;;;16.30;3.07;;;;;;;-145.18;100.00;60484.78;5078368;28;20032;-67
2021/08/26 05:01:09;;;;;;;13.33;3.53;;;;;;;-145.18;100.00;60484.78;5077583;28;20273;-67
2021/08/26 05:03:35;;;;;;;16.87;2.83;;;;;;;-145.18;100.00;60484.78;5071928;28;20185;-67
2021/08/26 05:06:04;;;;;;;16.93;2.63;;;;;;;-145.18;100.00;60484.78;5078651;28;20150;-67
2021/08/26 05:08:30;;;;;;;18.20;2.67;;;;;;;-145.18;100.00;60484.78;5078715;28;20238;-67
2021/08/26 05:10:55;;;;;;;15.43;3.83;;;;;;;-145.18;100.00;60484.78;5078225;28;20111;-67
2021/08/26 05:13:21;;;;;;;15.20;3.40;;;;;;;-145.18;100.00;60484.78;5071219;28;20032;-67
2021/08/26 05:15:46;;;;;;;11.30;2.47;;;;;;;-145.18;100.00;60484.78;5077551;28;20295;-67
2021/08/26 05:18:12;;;;;;;11.00;2.73;;;;;;;-145.18;100.00;60484.78;5076575;28;20024;-67
2021/08/26 05:20:37;;;;;;;13.80;2.30;;;;;;;-145.18;100.00;60484.78;5075561;28;20237;-67
2021/08/26 05:23:03;;;;;;;8.97;2.40;;;;;;;-145.18;100.00;60484.78;5077553;28;20248;-67
2021/08/26 05:25:28;;;;;;;17.73;2.63;;;;;;;-145.18;100.00;60484.78;5076851;28;20024;-67
2021/08/26 05:27:54;;;;;;;15.60;2.40;;;;;;;-145.18;100.00;60484.78;5077008;28;20434;-67
2021/08/26 05:30:19;;;;;;;8.43;2.77;;;;;;;-145.18;100.00;60484.78;5077394;28;20039;-67
2021/08/26 05:32:45;;;;;;;10.70;2.50;;;;;;;-145.18;100.00;60484.78;5075137;28;20060;-67
2021/08/26 05:35:11;;;;;;;13.70;2.10;;;;;;;-145.18;100.00;60484.78;5076441;28;20035;-67
2021/08/26 05:37:36;;;;;;;10.10;2.40;;;;;;;-145.18;100.00;60484.78;5079097;28;20035;-67
2021/08/26 05:40:04;;;;;;;10.90;2.53;;;;;;;-145.18;100.00;60484.78;5079050;28;20076;-67
2021/08/26 05:42:29;;;;;;;11.70;2.23;;;;;;;-145.18;100.00;60484.78;5078687;28;20284;-67
2021/08/26 05:44:55;;;;;;;8.63;2.17;;;;;;;-145.18;100.00;60484.78;5078223;28;20107;-67
2021/08/26 05:47:20;;;;;;;9.37;2.03;;;;;;;-145.18;100.00;60484.78;5078456;28;20089;-68
2021/08/26 05:49:46;;;;;;;9.43;2.30;;;;;;;-145.18;100.00;60484.78;5079136;28;20035;-67
2021/08/26 05:52:11;;;;;;;7.00;1.80;;;;;;;-145.18;100.00;60484.78;5081239;28;20032;-67
2021/08/26 05:54:37;;;;;;;6.00;1.90;;;;;;;-145.18;100.00;60484.78;5082108;28;20154;-68
2021/08/26 05:57:03;;;;;;;6.73;1.67;;;;;;;-145.18;100.00;60484.78;5082531;28;20050;-68
2021/08/26 05:59:29;;;;;;;7.43;1.70;;;;;;;-145.18;100.00;60484.78;5082921;28;20095;-68
2021/08/26 06:01:55;;;;;;;7.00;1.53;;;;;;;-145.18;100.00;60484.78;5082319;28;20035;-69
2021/08/26 06:04:20;;;;;;;10.53;1.93;;;;;;;-145.18;100.00;60484.78;5081735;28;20028;-70
2021/08/26 06:06:46;;;;;;;8.30;1.70;;;;;;;-145.18;100.00;60484.78;5082843;28;20267;-71
2021/08/26 06:09:11;;;;;;;8.17;1.70;;;;;;;-145.18;100.00;60484.78;5082529;28;20297;-70
2021/08/26 06:11:37;;;;;;;12.73;1.63;;;;;;;-145.18;100.00;60484.78;5082437;28;20035;-69
2021/08/26 06:14:02;;;;;;;9.63;1.83;;;;;;;-145.18;100.00;60484.78;5082313;28;20101;-70
2021/08/26 06:16:28;;;;;;;8.80;2.07;;;;;;;-145.18;100.00;60484.78;5081296;28;20374;-71
2021/08/26 06:18:53;;;;;;;6.20;1.63;;;;;;;-145.18;100.00;60484.78;5082923;28;20020;-71
2021/08/26 06:21:19;;;;;;;8.90;1.43;;;;;;;-145.18;100.00;60484.78;5082027;28;20062;-71
2021/08/26 06:23:44;;;;;;;8.67;1.73;;;;;;;-145.18;100.00;60484.78;5082122;28;20111;-70
2021/08/26 06:26:10;;;;;;;10.02;2.03;;;;;;;-145.18;100.00;60484.78;5081566;28;20028;-71
2021/08/26 06:28:36;;;;;;;8.65;1.83;;;;;;;-145.18;100.00;60484.78;5081685;28;20238;-71
2021/08/26 06:31:01;;;;;;;5.45;1.48;;;;;;;-145.18;100.00;60484.78;5081847;28;20254;-71
2021/08/26 06:33:27;;;;;;;7.13;1.27;;;;;;;-145.18;100.00;60484.78;5081953;28;20036;-71
2021/08/26 06:35:53;;;;;;;10.43;1.98;;;;;;;-145.18;100.00;60484.78;5081247;28;20057;-71
2021/08/26 06:38:18;;;;;;;4.70;1.55;;;;;;;-145.18;100.00;60484.78;5082031;28;20052;-71
2021/08/26 06:40:44;;;;;;;9.05;1.30;;;;;;;-145.18;100.00;60484.78;5081792;28;20511;-71
2021/08/26 06:43:09;;;;;;;9.55;1.75;;;;;;;-145.18;100.00;60484.78;5081375;28;20107;-70
2021/08/26 06:45:35;;;;;;;5.03;1.02;;;;;;;-145.18;100.00;60484.78;5081319;28;20028;-70
2021/08/26 06:48:00;;;;;;;6.15;1.50;;;;;;;-145.18;100.00;60484.78;5081687;28;20477;-71
2021/08/26 06:50:26;;;;;;;11.45;1.90;;;;;;;-145.18;100.00;60484.78;5081762;28;20024;-71
2021/08/26 06:52:52;;;;;;;10.48;1.20;;;;;;;-145.18;100.00;60484.78;5081289;28;20289;-72
2021/08/26 06:55:17;;;;;;;7.72;1.50;;;;;;;-145.18;100.00;60484.78;5081237;28;20519;-71
2021/08/26 06:57:43;;;;;;;6.43;1.48;;;;;;;-145.18;100.00;60484.78;5081397;28;20020;-72
2021/08/26 07:00:09;;;;;;;10.25;1.58;;;;;;;-145.18;100.00;60484.78;5081195;28;20024;-71
2021/08/26 07:02:36;;;;;;;12.77;1.50;;;;;;;-145.18;100.00;60484.78;5080505;28;20046;-71
2021/08/26 07:05:05;;;;;;;12.82;1.95;;;;;;;-145.18;100.00;60484.78;5080975;28;20020;-69
2021/08/26 07:07:30;;;;;;;9.27;1.63;;;;;;;-145.18;100.00;60484.78;5081039;28;20471;-71
2021/08/26 07:10:00;;;;;;;9.68;1.88;;;;;;;-145.18;100.00;60484.78;5081378;28;20032;-70
2021/08/26 07:12:31;;;;;;;6.32;1.20;;;;;;;-145.18;100.00;60484.78;5081058;28;20149;-72
2021/08/26 07:14:57;;;;;;;7.40;1.55;;;;;;;-145.18;100.00;60484.78;5080793;28;20250;-71
2021/08/26 07:17:23;;;;;;;7.75;1.45;;;;;;;-145.18;100.00;60484.78;5080593;28;20044;-72
2021/08/26 07:19:48;;;;;;;12.18;1.40;;;;;;;-145.18;100.00;60484.78;5080896;28;20043;-71
2021/08/26 07:22:14;;;;;;;9.98;1.40;;;;;;;-145.18;100.00;60484.78;5081200;28;20472;-71
2021/08/26 07:24:39;;;;;;;7.82;1.35;;;;;;;-145.18;100.00;60484.78;5080910;28;20034;-70
2021/08/26 07:27:05;;;;;;;7.65;1.55;;;;;;;-145.18;100.00;60484.78;5080347;28;20024;-70
2021/08/26 07:29:31;;;;;;;7.03;1.35;;;;;;;-145.18;100.00;60484.78;5081801;28;20031;-69
2021/08/26 07:31:56;;;;;;;7.95;1.50;;;;;;;-145.18;100.00;60484.78;5080927;28;20035;-69
2021/08/26 07:34:22;;;;;;;6.45;1.20;;;;;;;-145.18;100.00;60484.78;5080727;28;20416;-69
2021/08/26 07:36:47;;;;;;;7.32;1.42;;;;;;;-145.18;100.00;60484.78;5081050;28;20100;-67
2021/08/26 07:39:13;;;;;;;8.85;1.20;;;;;;;-145.18;100.00;60484.78;5080426;28;20530;-66
2021/08/26 07:41:38;;;;;;;5.78;1.65;;;;;;;-145.18;100.00;60484.78;5080719;28;20028;-66
2021/08/26 07:44:04;;;;;;;8.70;1.63;;;;;;;-145.18;100.00;60484.78;5080418;28;20263;-67
2021/08/26 07:46:30;;;;;;;10.35;1.42;;;;;;;-145.18;100.00;60484.78;5080474;28;20479;-65
2021/08/26 07:48:55;;;;;;;7.80;1.70;;;;;;;-145.18;100.00;60484.78;5080252;28;20598;-67
2021/08/26 07:51:20;;;;;;;11.80;1.60;;;;;;;-145.18;100.00;60484.78;5080098;28;20266;-67
2021/08/26 07:53:46;;;;;;;9.40;1.80;;;;;;;-145.18;100.00;60484.78;5080284;28;20020;-66
2021/08/26 07:56:12;;;;;;;8.90;2.00;;;;;;;-145.18;100.00;60484.78;5080217;28;20149;-65
2021/08/26 07:58:37;;;;;;;13.68;2.83;;;;;;;-145.18;100.00;60484.78;5079766;28;20027;-65
2021/08/26 08:01:03;;;;;;;8.68;2.40;;;;;;;-145.18;100.00;60484.78;5080285;28;20055;-65
2021/08/26 08:03:32;;;;;;;8.23;1.83;;;;;;;-145.18;100.00;60484.78;5080076;28;20379;-65
2021/08/26 08:05:57;;;;;;;10.77;2.35;;;;;;;-145.18;100.00;60484.78;5080084;28;20028;-65
2021/08/26 08:08:23;;;;;;;11.32;1.73;;;;;;;-145.18;100.00;60484.78;5079709;28;20612;-65
2021/08/26 08:10:49;;;;;;;9.75;1.90;;;;;;;-145.18;100.00;60484.78;5080221;28;20077;-65
2021/08/26 08:13:14;;;;;;;12.30;1.80;;;;;;;-145.18;100.00;60484.78;5079826;28;20635;-65
2021/08/26 08:15:40;;;;;;;9.40;2.05;;;;;;;-145.18;100.00;60484.78;5079073;28;20101;-65
2021/08/26 08:18:06;;;;;;;10.93;2.17;;;;;;;-145.18;100.00;60484.78;5079761;28;20517;-65
2021/08/26 08:20:31;;;;;;;13.10;2.40;;;;;;;-145.18;100.00;60484.78;5079240;28;20624;-64
2021/08/26 08:22:57;;;;;;;6.22;1.70;;;;;;;-145.18;100.00;60484.78;5079945;28;20077;-64
2021/08/26 08:25:22;;;;;;;12.63;2.70;;;;;;;-145.18;100.00;60484.78;5079540;28;20100;-64
2021/08/26 08:27:48;;;;;;;12.52;3.08;;;;;;;-145.18;100.00;60484.78;5079738;28;20677;-64
2021/08/26 08:30:13;;;;;;;11.90;2.45;;;;;;;-145.18;100.00;60484.78;5079140;28;20024;-64
2021/08/26 08:32:39;;;;;;;12.23;2.72;;;;;;;-145.18;100.00;60484.78;5079614;28;20020;-64
2021/08/26 08:35:05;;;;;;;12.98;2.28;;;;;;;-145.18;100.00;60484.78;5079585;28;20024;-64
2021/08/26 08:37:31;;;;;;;12.60;2.70;;;;;;;-145.18;100.00;60484.78;5079394;28;20495;-64
2021/08/26 08:39:56;;;;;;;13.00;2.50;;;;;;;-145.18;100.00;60484.78;5079126;28;20276;-64
2021/08/26 08:42:23;;;;;;;13.65;2.13;;;;;;;-145.18;100.00;60484.78;5080279;28;20038;-64
2021/08/26 08:44:49;;;;;;;14.65;3.15;;;;;;;-145.18;100.00;60484.78;5078658;28;20023;-64
2021/08/26 08:47:15;;;;;;;8.48;2.10;;;;;;;-145.18;100.00;60484.78;5079606;28;20040;-64
2021/08/26 08:49:43;;;;;;;11.57;2.33;;;;;;;-145.18;100.00;60484.78;5079185;28;20072;-64
2021/08/26 08:52:09;;;;;;;10.63;2.00;;;;;;;-145.18;100.00;60484.78;5079350;28;20427;-64
2021/08/26 08:54:35;;;;;;;15.98;2.38;;;;;;;-145.18;100.00;60484.78;5079186;28;20023;-64
2021/08/26 08:57:01;;;;;;;18.02;3.47;;;;;;;-145.18;100.00;60484.78;5079013;28;20028;-64
2021/08/26 08:59:30;;;;;;;10.48;2.22;;;;;;;-145.18;100.00;60484.78;5079365;28;20027;-64
2021/08/26 09:01:56;;;;;;;14.32;2.17;;;;;;;-145.18;100.00;60484.78;5078893;28;20016;-64
2021/08/26 09:04:22;;;;;;;9.05;1.80;;;;;;;-145.18;100.00;60484.78;5078823;28;20055;-64
2021/08/26 09:06:50;;;;;;;13.20;2.05;;;;;;;-145.18;100.00;60484.78;5078952;28;20031;-64
2021/08/26 09:09:16;;;;;;;14.07;2.25;;;;;;;-145.18;100.00;60484.78;5079241;28;20527;-64
2021/08/26 09:11:53;;;;;;;13.32;2.45;;;;;;;-145.18;100.00;60484.78;5078698;28;20483;-65
2021/08/26 09:14:22;;;;;;;13.05;2.58;;;;;;;-145.18;100.00;60484.78;5079280;28;20054;-65
2021/08/26 09:16:50;;;;;;;8.25;2.05;;;;;;;-145.18;100.00;60484.78;5078498;28;20078;-65
2021/08/26 09:19:30;;;;;;;12.38;2.17;;;;;;;-145.18;100.00;60484.78;5078946;28;20031;-65
2021/08/26 09:22:02;;;;;;;11.95;1.75;;;;;;;-145.18;100.00;60484.78;5078468;28;20028;-66
2021/08/26 09:24:45;;;;;;;10.73;2.25;;;;;;;-145.18;100.00;60484.78;5079078;28;20098;-67
2021/08/26 09:27:12;;;;;;;13.77;2.22;;;;;;;-145.18;100.00;60484.78;5081554;28;20036;-66
2021/08/26 09:30:12;;;;;;;7.18;1.85;;;;;;;-145.18;100.00;60484.78;5083825;28;20032;-66
2021/08/26 09:32:50;;;;;;;8.77;2.25;;;;;;;-145.18;100.00;60484.78;5082749;28;20024;-66
2021/08/26 09:35:21;;;;;;;12.18;1.83;;;;;;;-145.18;100.00;60484.78;5082977;28;20024;-68
2021/08/26 09:37:52;;;;;;;10.32;2.35;;;;;;;-145.18;100.00;60484.78;5082835;28;20231;-68
2021/08/26 09:40:21;;;;;;;10.10;1.70;;;;;;;-145.18;100.00;60484.78;5083106;28;20651;-67
2021/08/26 09:43:01;;;;;;;7.07;1.40;;;;;;;-145.18;100.00;60484.78;5082300;28;20103;-67
2021/08/26 09:45:29;;;;;;;10.27;1.73;;;;;;;-145.18;100.00;60484.78;5080427;28;20585;-67
2021/08/26 09:48:00;;;;;;;10.40;1.67;;;;;;;-145.18;100.00;60484.78;5082917;28;20029;-67
2021/08/26 09:50:48;;;;;;;8.43;1.90;;;;;;;-145.18;100.00;60484.78;5082829;28;20427;-66
2021/08/26 09:53:16;;;;;;;6.28;1.60;;;;;;;-145.18;100.00;60484.78;5082484;28;20389;-65
2021/08/26 09:56:02;;;;;;;10.30;1.88;;;;;;;-145.18;100.00;60484.78;5082711;28;20023;-65
2021/08/26 09:58:31;;;;;;;7.53;2.03;;;;;;;-145.18;100.00;60484.78;5069225;28;20031;-65
2021/08/26 10:01:09;;;;;;;8.23;1.92;;;;;;;-145.18;100.00;60484.78;5082482;28;20177;-65
2021/08/26 10:03:35;;;;;;;9.13;1.48;;;;;;;-145.18;100.00;60484.78;5081732;28;20055;-64
2021/08/26 10:06:00;;;;;;;10.77;1.73;;;;;;;-145.18;100.00;60484.78;5082346;28;20249;-64
2021/08/26 10:08:29;;;;;;;10.55;1.95;;;;;;;-145.18;100.00;60484.78;5083054;28;20050;-64
2021/08/26 10:10:56;;;;;;;7.53;1.60;;;;;;;-145.18;100.00;60484.78;5082602;28;20032;-64
2021/08/26 10:13:21;;;;;;;10.63;1.88;;;;;;;-145.18;100.00;60484.78;5082362;28;20123;-67
2021/08/26 10:15:47;;;;;;;12.43;2.00;;;;;;;-145.18;100.00;60484.78;5082073;28;20305;-67
2021/08/26 10:18:16;;;;;;;6.03;1.50;;;;;;;-145.18;100.00;60484.78;5082195;28;20477;-67
2021/08/26 10:20:42;;;;;;;8.15;1.40;;;;;;;-145.18;100.00;60484.78;5082231;28;20020;-67
2021/08/26 10:23:10;;;;;;;7.78;1.40;;;;;;;-145.18;100.00;60484.78;5081939;28;20362;-67
2021/08/26 10:25:40;;;;;;;5.70;1.42;;;;;;;-145.18;100.00;60484.78;5082137;28;20212;-67
2021/08/26 10:28:07;;;;;;;10.70;1.40;;;;;;;-145.18;100.00;60484.78;5081951;28;20016;-67
2021/08/26 10:30:35;;;;;;;7.63;1.45;;;;;;;-145.18;100.00;60484.78;5082163;28;20047;-68
2021/08/26 10:33:16;;;;;;;6.18;1.10;;;;;;;-145.18;100.00;60484.78;5081752;28;20427;-68
2021/08/26 10:36:13;;;;;;;3.17;0.70;;;;;;;-145.18;100.00;60484.78;5081719;28;20106;-68
2021/08/26 10:38:39;;;;;;;4.55;1.10;;;;;;;-145.18;100.00;60484.78;5065644;28;20035;-67
2021/08/26 10:41:37;;;;;;;7.20;1.13;;;;;;;-145.18;100.00;60484.78;5081454;28;20023;-67
2021/08/26 10:44:03;;;;;;;4.82;1.05;;;;;;;-145.18;100.00;60484.78;5036943;28;20032;-68
2021/08/26 10:46:54;;;;;;;4.75;1.17;;;;;;;-145.18;100.00;60484.78;5087313;28;20277;-67
2021/08/26 10:49:21;;;;;;;;;;;;;;;-145.18;100.00;60484.78;5081719;28;20028;-65
2021/08/26 10:51:48;;;;;;;4.78;0.85;;;;;;;-145.18;100.00;60484.78;5081657;28;20024;-65
2021/08/26 10:54:30;;;;;;;6.22;0.90;;;;;;;-145.18;100.00;60484.78;5080996;28;20016;-65
2021/08/26 10:57:17;;;;;;;3.33;0.75;;;;;;;-145.18;100.00;60484.78;5081632;28;20619;-65
2021/08/26 10:59:42;;;;;;;13.02;1.20;;;;;;;-145.18;100.00;60484.78;5069918;28;20027;-65
2021/08/26 11:02:41;;;;;;;4.53;1.05;;;;;;;-145.18;100.00;60484.78;5081285;28;20376;-65
2021/08/26 11:05:38;;;;;;;6.15;1.23;;;;;;;-145.18;100.00;60484.78;5080715;28;20032;-65
2021/08/26 11:08:31;;;;;;;5.03;1.00;;;;;;;-145.18;100.00;60484.78;5080840;28;20016;-65
2021/08/26 11:11:01;;;;;;;3.15;0.90;;;;;;;-145.18;100.00;60484.78;5076950;28;20032;-64
2021/08/26 11:13:32;;;;;;;4.80;0.90;;;;;;;-145.18;100.00;60484.78;5080937;28;20273;-65